createdAt,value
2019-06-26T00:03:42.163Z,7.45
2019-06-26T00:07:43.924Z,11.78
2019-06-26T00:11:45.637Z,7.05
2019-06-26T00:15:47.375Z,6.87
2019-06-26T00:19:49.443Z,11.33
2019-06-26T00:23:51.631Z,18.17
2019-06-26T00:27:53.344Z,10.03
2019-06-26T00:31:55.128Z,10.55
2019-06-26T00:35:56.834Z,13.35
2019-06-26T00:39:58.544Z,10.85
2019-06-26T00:44:00.722Z,13.10
2019-06-26T00:48:02.490Z,13.48
2019-06-26T00:52:04.302Z,11.63
2019-06-26T00:56:06.029Z,15.05
2019-06-26T01:00:08.244Z,11.55
2019-06-26T01:04:09.990Z,13.72
2019-06-26T01:08:11.690Z,19.80
2019-06-26T01:12:13.417Z,22.45
2019-06-26T01:16:15.261Z,21.50
2019-06-26T01:20:17.257Z,21.93
2019-06-26T01:24:18.970Z,20.70
2019-06-26T01:28:20.676Z,17.17
2019-06-26T01:32:22.797Z,22.30
2019-06-26T01:36:24.515Z,24.67
2019-06-26T01:40:26.224Z,19.50
2019-06-26T01:44:28.676Z,19.12
2019-06-26T01:48:30.415Z,18.27
2019-06-26T01:52:32.118Z,18.98
2019-06-26T01:56:34.113Z,22.13
2019-06-26T02:00:36.208Z,17.98
2019-06-26T02:04:37.967Z,23.55
2019-06-26T02:08:40.242Z,21.62
2019-06-26T02:12:41.980Z,22.58
2019-06-26T02:16:43.755Z,23.57
2019-06-26T02:20:45.749Z,22.50
2019-06-26T02:24:47.490Z,26.15
2019-06-26T02:28:49.294Z,24.30
2019-06-26T02:32:51.332Z,21.40
2019-06-26T02:36:53.053Z,19.87
2019-06-26T02:40:54.762Z,22.52
2019-06-26T02:44:56.580Z,28.25
2019-06-26T02:48:58.468Z,24.50
2019-06-26T02:53:00.200Z,31.95
2019-06-26T02:57:02.261Z,27.25
2019-06-26T03:01:03.967Z,25.43
2019-06-26T03:05:05.961Z,29.63
2019-06-26T03:09:07.969Z,39.48
2019-06-26T03:13:10.369Z,41.80
2019-06-26T03:17:12.094Z,33.30
2019-06-26T03:21:13.854Z,37.73
2019-06-26T03:25:16.411Z,41.88
2019-06-26T03:29:18.306Z,50.05
2019-06-26T03:33:20.305Z,49.23
2019-06-26T03:37:22.011Z,56.10
2019-06-26T03:41:23.815Z,59.23
2019-06-26T03:45:26.575Z,56.20
2019-06-26T03:49:29.255Z,56.73
2019-06-26T03:53:31.028Z,56.88
2019-06-26T03:57:35.346Z,52.13
2019-06-26T04:01:36.751Z,53.90
2019-06-26T04:05:38.459Z,53.98
2019-06-26T04:09:40.538Z,55.95
2019-06-26T04:13:42.306Z,52.25
2019-06-26T04:17:44.384Z,53.33
2019-06-26T04:21:46.253Z,50.30
2019-06-26T04:25:47.973Z,51.75
2019-06-26T04:29:49.709Z,56.02
2019-06-26T04:33:51.412Z,65.42
2019-06-26T04:37:53.200Z,58.10
2019-06-26T04:41:54.879Z,54.20
2019-06-26T04:45:58.573Z,57.83
2019-06-26T04:50:00.333Z,56.23
2019-06-26T04:54:02.337Z,67.58
2019-06-26T04:58:04.421Z,55.78
2019-06-26T05:02:06.137Z,53.50
2019-06-26T05:06:07.901Z,53.48
2019-06-26T05:10:10.552Z,57.55
2019-06-26T05:14:12.346Z,59.67
2019-06-26T05:18:14.445Z,56.15
2019-06-26T05:22:16.576Z,53.10
2019-06-26T05:26:18.374Z,49.65
2019-06-26T05:30:20.551Z,52.60
2019-06-26T05:34:22.579Z,54.05
2019-06-26T05:38:24.724Z,49.20
2019-06-26T05:42:26.743Z,40.25
2019-06-26T05:46:31.532Z,46.40
2019-06-26T05:50:33.388Z,46.05
2019-06-26T05:54:35.534Z,48.30
2019-06-26T05:58:37.380Z,50.08
2019-06-26T06:02:39.744Z,48.00
2019-06-26T06:06:42.492Z,50.63
2019-06-26T06:10:44.531Z,49.08
2019-06-26T06:14:46.804Z,46.42
2019-06-26T06:18:49.162Z,45.28
2019-06-26T06:22:50.992Z,50.88
2019-06-26T06:26:53.234Z,47.05
2019-06-26T06:30:55.117Z,51.48
2019-06-26T06:34:57.101Z,44.58
2019-06-26T06:38:59.278Z,48.68
2019-06-26T06:43:01.845Z,45.60
2019-06-26T06:47:05.590Z,47.20
2019-06-26T06:51:07.552Z,42.73
2019-06-26T06:55:10.225Z,37.23
2019-06-26T06:59:12.441Z,41.50
2019-06-26T07:03:14.150Z,40.15
2019-06-26T07:07:16.262Z,44.50
2019-06-26T07:11:18.377Z,39.50
2019-06-26T07:15:20.476Z,42.73
2019-06-26T07:19:22.372Z,37.33
2019-06-26T07:23:24.070Z,41.05
2019-06-26T07:27:26.301Z,34.45
2019-06-26T07:31:28.080Z,38.48
2019-06-26T07:35:29.785Z,37.85
2019-06-26T07:39:34.546Z,29.77
2019-06-26T07:43:36.539Z,31.73
2019-06-26T07:47:43.718Z,40.15
2019-06-26T07:51:42.767Z,40.55
2019-06-26T07:55:44.881Z,33.80
2019-06-26T07:59:46.871Z,38.67
2019-06-26T08:03:48.590Z,32.50
2019-06-26T08:07:51.723Z,38.53
2019-06-26T08:11:54.307Z,40.08
2019-06-26T08:15:57.107Z,35.60
2019-06-26T08:19:59.196Z,35.73
2019-06-26T08:24:01.305Z,29.40
2019-06-26T08:28:03.106Z,27.20
2019-06-26T08:32:04.945Z,37.67
2019-06-26T08:36:06.836Z,26.20
2019-06-26T08:40:08.864Z,24.02
2019-06-26T08:44:10.588Z,27.00
2019-06-26T08:48:19.243Z,28.83
2019-06-26T08:52:16.488Z,23.12
2019-06-26T08:56:18.206Z,24.85
2019-06-26T09:00:20.170Z,24.65
2019-06-26T09:04:21.890Z,18.90
2019-06-26T09:08:24.706Z,20.90
2019-06-26T09:12:26.887Z,21.23
2019-06-26T09:16:28.717Z,20.72
2019-06-26T09:20:36.313Z,24.90
2019-06-26T09:24:38.155Z,27.55
2019-06-26T09:28:40.445Z,26.52
2019-06-26T09:32:46.269Z,25.00
2019-06-26T09:36:54.885Z,23.83
2019-06-26T09:40:57.315Z,27.30
2019-06-26T09:44:59.170Z,21.97
2019-06-26T09:49:04.292Z,20.02
2019-06-26T09:53:06.474Z,19.20
2019-06-26T09:57:09.630Z,16.70
2019-06-26T10:01:13.327Z,19.15
2019-06-26T10:05:15.706Z,17.80
2019-06-26T10:09:18.631Z,23.40
2019-06-26T10:13:20.922Z,14.73
2019-06-26T10:17:23.273Z,13.48
2019-06-26T10:21:25.075Z,17.42
2019-06-26T10:25:28.029Z,13.60
2019-06-26T10:29:30.206Z,15.80
2019-06-26T10:33:32.384Z,16.90
2019-06-26T10:37:34.252Z,12.23
2019-06-26T10:41:36.941Z,16.27
2019-06-26T10:45:38.711Z,12.80
2019-06-26T10:49:40.423Z,23.12
2019-06-26T10:53:43.151Z,14.45
2019-06-26T10:57:45.453Z,13.40
2019-06-26T11:01:48.178Z,18.95
2019-06-26T11:05:49.976Z,15.35
2019-06-26T11:09:52.874Z,18.12
2019-06-26T11:13:55.367Z,14.95
2019-06-26T11:17:57.716Z,23.55
2019-06-26T11:21:59.436Z,19.27
2019-06-26T11:26:04.209Z,16.57
2019-06-26T11:30:09.256Z,16.87
2019-06-26T11:34:11.580Z,21.68
2019-06-26T11:38:14.399Z,18.73
2019-06-26T11:42:16.657Z,13.53
2019-06-26T11:46:18.752Z,20.55
2019-06-26T11:50:22.663Z,24.92
2019-06-26T11:54:25.219Z,20.05
2019-06-26T11:58:26.993Z,21.17
2019-06-26T12:02:29.477Z,21.65
2019-06-26T12:06:31.745Z,17.60
2019-06-26T12:10:33.539Z,19.25
2019-06-26T12:14:36.139Z,18.30
2019-06-26T12:18:38.078Z,26.82
2019-06-26T12:22:40.583Z,16.35
2019-06-26T12:26:42.370Z,21.70
2019-06-26T12:30:44.928Z,26.93
2019-06-26T12:34:47.104Z,20.17
2019-06-26T12:38:49.180Z,23.90
2019-06-26T12:42:54.526Z,22.85
2019-06-26T12:46:54.901Z,15.78
2019-06-26T12:50:58.270Z,24.95
2019-06-26T12:55:00.071Z,15.23
2019-06-26T12:59:01.930Z,22.50
2019-06-26T13:03:04.472Z,16.80
2019-06-26T13:07:06.796Z,21.30
2019-06-26T13:11:08.578Z,13.40
2019-06-26T13:15:16.446Z,17.55
2019-06-26T13:19:23.995Z,17.23
2019-06-26T13:27:27.935Z,18.82
2019-06-26T13:31:30.293Z,16.40
2019-06-26T13:35:32.681Z,25.45
2019-06-26T13:39:34.962Z,22.65
2019-06-26T13:43:37.029Z,21.75
2019-06-26T13:47:39.246Z,23.30
2019-06-26T13:51:41.009Z,21.68
2019-06-26T13:55:43.168Z,21.12
2019-06-26T13:59:44.985Z,19.10
2019-06-26T14:03:46.790Z,16.20
2019-06-26T14:07:48.979Z,20.48
2019-06-26T14:11:51.696Z,20.17
2019-06-26T14:15:53.827Z,14.87
2019-06-26T14:19:55.869Z,14.58
2019-06-26T14:23:57.734Z,22.55
2019-06-26T14:27:59.904Z,17.62
2019-06-26T14:32:01.656Z,22.73
2019-06-26T14:36:03.386Z,16.90
2019-06-26T14:40:05.432Z,13.65
2019-06-26T14:44:07.181Z,18.07
2019-06-26T14:48:09.086Z,14.28
2019-06-26T14:52:10.986Z,15.38
2019-06-26T14:56:12.823Z,18.07
2019-06-26T15:00:15.986Z,16.52
2019-06-26T15:04:18.484Z,15.53
2019-06-26T15:08:21.175Z,11.60
2019-06-26T15:12:22.996Z,10.98
2019-06-26T15:16:25.844Z,9.28
2019-06-26T15:20:33.344Z,12.88
2019-06-26T15:24:35.060Z,15.08
2019-06-26T15:28:37.259Z,12.55
2019-06-26T15:32:39.583Z,14.93
2019-06-26T15:36:41.694Z,15.68
2019-06-26T15:40:44.404Z,15.45
2019-06-26T15:44:46.592Z,10.93
2019-06-26T15:48:50.415Z,12.15
2019-06-26T15:52:52.465Z,11.83
2019-06-26T15:56:54.310Z,13.30
2019-06-26T16:00:56.062Z,9.10
2019-06-26T16:04:57.824Z,13.93
2019-06-26T16:08:59.946Z,11.63
2019-06-26T16:13:04.220Z,8.43
2019-06-26T16:17:06.911Z,9.13
2019-06-26T16:26:22.410Z,13.13
2019-06-26T16:30:24.665Z,22.45
2019-06-26T16:34:28.049Z,12.80
2019-06-26T16:38:30.322Z,20.12
2019-06-26T16:42:32.514Z,19.00
2019-06-26T16:46:34.604Z,14.75
2019-06-26T16:50:36.806Z,23.02
2019-06-26T16:54:38.894Z,14.73
2019-06-26T16:58:40.837Z,20.88
2019-06-26T17:02:42.564Z,19.35
2019-06-26T17:06:44.270Z,15.08
2019-06-26T17:10:46.410Z,15.65
2019-06-26T17:14:48.546Z,20.77
2019-06-26T17:18:50.729Z,26.70
2019-06-26T17:23:05.011Z,17.60
2019-06-26T17:26:59.576Z,13.70
2019-06-26T17:31:02.458Z,16.97
2019-06-26T17:35:04.841Z,15.32
2019-06-26T17:39:06.696Z,11.68
2019-06-26T17:43:12.652Z,18.17
2019-06-26T17:47:12.916Z,11.15
2019-06-26T17:51:14.627Z,9.30
2019-06-26T17:55:16.404Z,12.05
2019-06-26T17:59:18.149Z,15.23
2019-06-26T18:03:20.123Z,14.85
2019-06-26T18:07:22.641Z,11.05
2019-06-26T18:11:24.674Z,16.20
2019-06-26T18:15:27.009Z,14.98
2019-06-26T18:19:29.454Z,15.95
2019-06-26T18:23:37.562Z,11.97
2019-06-26T18:27:38.058Z,16.17
2019-06-26T18:31:40.912Z,14.85
2019-06-26T18:35:43.307Z,11.88
2019-06-26T18:39:45.852Z,11.88
2019-06-26T18:43:48.928Z,11.65
2019-06-26T18:47:51.307Z,16.50
2019-06-26T18:51:53.575Z,12.18
2019-06-26T18:55:55.913Z,16.82
2019-06-26T19:00:03.205Z,10.55
2019-06-26T19:04:05.812Z,12.18
2019-06-26T19:08:08.587Z,15.23
2019-06-26T19:12:10.885Z,15.65
2019-06-26T19:16:14.227Z,12.13
2019-06-26T19:20:16.509Z,14.90
2019-06-26T19:24:18.907Z,15.13
2019-06-26T19:28:23.287Z,12.13
2019-06-26T19:32:30.750Z,15.65
2019-06-26T19:36:49.013Z,17.23
2019-06-26T19:40:38.856Z,11.85
2019-06-26T19:44:41.919Z,12.10
2019-06-26T19:48:43.717Z,12.30
2019-06-26T19:52:46.519Z,12.45
2019-06-26T19:56:48.653Z,14.73
2019-06-26T20:00:50.833Z,15.85
2019-06-26T20:04:53.015Z,14.00
2019-06-26T20:08:57.635Z,13.13
2019-06-26T20:13:00.572Z,10.30
2019-06-26T20:17:02.799Z,9.23
2019-06-26T20:25:15.311Z,16.73
2019-06-26T20:29:17.900Z,9.13
2019-06-26T20:33:20.436Z,7.58
2019-06-26T20:37:22.294Z,8.88
2019-06-26T20:41:25.491Z,12.13
2019-06-26T20:45:27.231Z,8.18
2019-06-26T20:49:29.438Z,8.20
2019-06-26T20:53:33.975Z,8.05
2019-06-26T20:57:37.071Z,8.98
2019-06-26T21:01:39.732Z,6.28
2019-06-26T21:05:41.957Z,6.80
2019-06-26T21:09:44.004Z,13.05
2019-06-26T21:13:45.742Z,7.87
2019-06-26T21:17:48.715Z,15.32
2019-06-26T21:21:50.801Z,6.95
2019-06-26T21:25:52.738Z,8.25
2019-06-26T21:29:57.597Z,7.75
2019-06-26T21:33:59.423Z,6.62
2019-06-26T21:38:01.291Z,7.90
2019-06-26T21:42:03.156Z,9.48
2019-06-26T21:46:04.909Z,9.30
2019-06-26T21:50:07.076Z,6.53
2019-06-26T21:54:08.871Z,7.05
2019-06-26T21:58:10.796Z,9.28
2019-06-26T22:02:18.572Z,7.72
2019-06-26T22:06:21.835Z,11.97
2019-06-26T22:10:29.398Z,5.97
2019-06-26T22:14:33.737Z,6.78
2019-06-26T22:18:36.161Z,7.53
2019-06-26T22:22:38.135Z,9.38
2019-06-26T22:26:40.792Z,8.60
2019-06-26T22:31:04.747Z,10.38
2019-06-26T22:35:06.728Z,9.80
2019-06-26T22:39:08.944Z,4.12
2019-06-26T22:43:10.732Z,7.30
2019-06-26T22:47:12.530Z,10.15
2019-06-26T22:51:14.529Z,10.55
2019-06-26T22:55:16.706Z,7.92
2019-06-26T22:59:18.464Z,10.63
2019-06-26T23:03:20.332Z,10.95
2019-06-26T23:07:22.489Z,6.42
2019-06-26T23:11:24.671Z,9.40
2019-06-26T23:15:26.821Z,9.83
2019-06-26T23:19:28.987Z,8.48
2019-06-26T23:23:30.999Z,13.28
2019-06-26T23:27:32.717Z,9.53
2019-06-26T23:31:34.437Z,8.48
2019-06-26T23:35:36.319Z,11.12
2019-06-26T23:39:38.438Z,12.20
2019-06-26T23:43:40.239Z,9.33
2019-06-26T23:47:42.597Z,5.67
2019-06-26T23:51:44.692Z,10.65
2019-06-26T23:55:46.788Z,16.02
2019-06-26T23:59:48.788Z,10.93
